sensor_id;sensor_type;location;lat;lon;timestamp;temperature;humidity
8463;DHT22;4268;52.506;13.462;2023-04-03T00:01:07;2.20;99.90
8463;DHT22;4268;52.506;13.462;2023-04-03T00:03:33;2.20;99.90
8463;DHT22;4268;52.506;13.462;2023-04-03T00:05:59;2.20;99.90
8463;DHT22;4268;52.506;13.462;2023-04-03T00:08:25;2.20;99.90
8463;DHT22;4268;52.506;13.462;2023-04-03T00:10:50;2.20;99.90
8463;DHT22;4268;52.506;13.462;2023-04-03T00:13:16;2.10;99.90
8463;DHT22;4268;52.506;13.462;2023-04-03T00:15:42;2.10;99.90
8463;DHT22;4268;52.506;13.462;2023-04-03T00:18:08;2.10;99.90
8463;DHT22;4268;52.506;13.462;2023-04-03T00:20:34;2.10;99.90
8463;DHT22;4268;52.506;13.462;2023-04-03T00:23:00;2.10;99.90
8463;DHT22;4268;52.506;13.462;2023-04-03T00:25:26;2.00;99.90
8463;DHT22;4268;52.506;13.462;2023-04-03T00:27:52;2.00;99.90
8463;DHT22;4268;52.506;13.462;2023-04-03T00:30:19;2.00;99.90
8463;DHT22;4268;52.506;13.462;2023-04-03T00:32:46;2.00;99.90
8463;DHT22;4268;52.506;13.462;2023-04-03T00:35:12;2.90;99.90
8463;DHT22;4268;52.506;13.462;2023-04-03T00:37:41;2.00;99.90
8463;DHT22;4268;52.506;13.462;2023-04-03T00:40:08;2.00;99.90
8463;DHT22;4268;52.506;13.462;2023-04-03T00:42:35;2.00;99.90
8463;DHT22;4268;52.506;13.462;2023-04-03T00:47:27;2.00;99.90
8463;DHT22;4268;52.506;13.462;2023-04-03T00:49:53;2.00;99.90
8463;DHT22;4268;52.506;13.462;2023-04-03T00:52:21;1.90;99.90
8463;DHT22;4268;52.506;13.462;2023-04-03T00:54:50;1.90;99.90
8463;DHT22;4268;52.506;13.462;2023-04-03T00:57:17;2.00;99.90
8463;DHT22;4268;52.506;13.462;2023-04-03T00:59:46;1.90;99.90
8463;DHT22;4268;52.506;13.462;2023-04-03T01:02:13;1.90;99.90
8463;DHT22;4268;52.506;13.462;2023-04-03T01:04:41;2.40;99.90
8463;DHT22;4268;52.506;13.462;2023-04-03T01:07:12;1.90;99.90
8463;DHT22;4268;52.506;13.462;2023-04-03T01:09:39;1.90;99.90
8463;DHT22;4268;52.506;13.462;2023-04-03T01:12:25;1.90;99.90
8463;DHT22;4268;52.506;13.462;2023-04-03T01:14:54;2.00;99.90
8463;DHT22;4268;52.506;13.462;2023-04-03T01:17:37;1.90;99.90
8463;DHT22;4268;52.506;13.462;2023-04-03T01:25:50;1.90;99.90
8463;DHT22;4268;52.506;13.462;2023-04-03T01:28:23;1.90;99.90
8463;DHT22;4268;52.506;13.462;2023-04-03T01:31:22;1.90;99.90
8463;DHT22;4268;52.506;13.462;2023-04-03T01:33:49;1.90;99.90
8463;DHT22;4268;52.506;13.462;2023-04-03T01:36:24;1.90;99.90
8463;DHT22;4268;52.506;13.462;2023-04-03T01:38:50;1.90;99.90
8463;DHT22;4268;52.506;13.462;2023-04-03T01:41:16;1.80;99.90
8463;DHT22;4268;52.506;13.462;2023-04-03T01:43:42;2.00;99.90
8463;DHT22;4268;52.506;13.462;2023-04-03T01:46:08;1.90;99.90
8463;DHT22;4268;52.506;13.462;2023-04-03T01:48:34;1.80;99.90
8463;DHT22;4268;52.506;13.462;2023-04-03T01:50:59;1.80;99.90
8463;DHT22;4268;52.506;13.462;2023-04-03T01:53:25;1.80;99.90
8463;DHT22;4268;52.506;13.462;2023-04-03T01:55:51;1.70;99.90
8463;DHT22;4268;52.506;13.462;2023-04-03T01:58:16;1.70;99.90
8463;DHT22;4268;52.506;13.462;2023-04-03T02:00:42;1.70;99.90
8463;DHT22;4268;52.506;13.462;2023-04-03T02:03:07;1.70;99.90
8463;DHT22;4268;52.506;13.462;2023-04-03T02:05:33;1.70;99.90
8463;DHT22;4268;52.506;13.462;2023-04-03T02:07:58;1.70;99.90
8463;DHT22;4268;52.506;13.462;2023-04-03T02:10:24;1.70;99.90
8463;DHT22;4268;52.506;13.462;2023-04-03T02:12:50;1.70;99.90
8463;DHT22;4268;52.506;13.462;2023-04-03T02:15:16;1.70;99.90
8463;DHT22;4268;52.506;13.462;2023-04-03T02:17:41;1.70;99.90
8463;DHT22;4268;52.506;13.462;2023-04-03T02:20:07;1.70;99.90
8463;DHT22;4268;52.506;13.462;2023-04-03T02:22:33;1.70;99.90
8463;DHT22;4268;52.506;13.462;2023-04-03T02:24:59;1.70;99.90
8463;DHT22;4268;52.506;13.462;2023-04-03T02:27:25;1.60;99.90
8463;DHT22;4268;52.506;13.462;2023-04-03T02:29:51;1.60;99.90
8463;DHT22;4268;52.506;13.462;2023-04-03T02:32:16;1.60;99.90
8463;DHT22;4268;52.506;13.462;2023-04-03T02:34:42;1.50;99.90
8463;DHT22;4268;52.506;13.462;2023-04-03T02:37:07;1.60;99.90
8463;DHT22;4268;52.506;13.462;2023-04-03T02:39:33;1.60;99.90
8463;DHT22;4268;52.506;13.462;2023-04-03T02:41:58;1.60;99.90
8463;DHT22;4268;52.506;13.462;2023-04-03T02:44:24;1.60;99.90
8463;DHT22;4268;52.506;13.462;2023-04-03T02:46:50;1.50;99.90
8463;DHT22;4268;52.506;13.462;2023-04-03T02:49:15;1.50;99.90
8463;DHT22;4268;52.506;13.462;2023-04-03T02:51:41;1.60;99.90
8463;DHT22;4268;52.506;13.462;2023-04-03T02:54:07;1.50;99.90
8463;DHT22;4268;52.506;13.462;2023-04-03T02:56:32;1.60;99.90
8463;DHT22;4268;52.506;13.462;2023-04-03T02:58:58;1.50;99.90
8463;DHT22;4268;52.506;13.462;2023-04-03T03:01:23;1.50;99.90
8463;DHT22;4268;52.506;13.462;2023-04-03T03:03:49;1.50;99.90
8463;DHT22;4268;52.506;13.462;2023-04-03T03:06:16;1.50;99.90
8463;DHT22;4268;52.506;13.462;2023-04-03T03:08:42;1.50;99.90
8463;DHT22;4268;52.506;13.462;2023-04-03T03:11:09;1.40;99.90
8463;DHT22;4268;52.506;13.462;2023-04-03T03:13:35;1.40;99.90
8463;DHT22;4268;52.506;13.462;2023-04-03T03:16:01;1.40;99.90
8463;DHT22;4268;52.506;13.462;2023-04-03T03:18:27;1.40;99.90
8463;DHT22;4268;52.506;13.462;2023-04-03T03:20:54;1.40;99.90
8463;DHT22;4268;52.506;13.462;2023-04-03T03:23:21;1.80;99.90
8463;DHT22;4268;52.506;13.462;2023-04-03T03:25:46;2.90;99.90
8463;DHT22;4268;52.506;13.462;2023-04-03T03:28:12;1.30;99.90
8463;DHT22;4268;52.506;13.462;2023-04-03T03:30:38;1.30;99.90
8463;DHT22;4268;52.506;13.462;2023-04-03T03:33:03;0.60;99.90
8463;DHT22;4268;52.506;13.462;2023-04-03T03:35:32;1.20;99.90
8463;DHT22;4268;52.506;13.462;2023-04-03T03:37:58;0.80;99.90
8463;DHT22;4268;52.506;13.462;2023-04-03T03:40:23;1.20;99.90
8463;DHT22;4268;52.506;13.462;2023-04-03T03:42:49;1.20;99.90
8463;DHT22;4268;52.506;13.462;2023-04-03T03:45:14;1.10;99.90
8463;DHT22;4268;52.506;13.462;2023-04-03T03:47:40;2.80;99.90
8463;DHT22;4268;52.506;13.462;2023-04-03T03:50:06;1.10;99.90
8463;DHT22;4268;52.506;13.462;2023-04-03T03:52:32;1.10;99.90
8463;DHT22;4268;52.506;13.462;2023-04-03T03:54:57;1.60;99.90
8463;DHT22;4268;52.506;13.462;2023-04-03T03:57:23;0.00;99.90
8463;DHT22;4268;52.506;13.462;2023-04-03T03:59:48;0.70;99.90
8463;DHT22;4268;52.506;13.462;2023-04-03T04:02:17;1.10;99.90
8463;DHT22;4268;52.506;13.462;2023-04-03T04:04:42;0.70;99.90
8463;DHT22;4268;52.506;13.462;2023-04-03T04:07:08;1.00;99.90
8463;DHT22;4268;52.506;13.462;2023-04-03T04:09:33;0.60;99.90
8463;DHT22;4268;52.506;13.462;2023-04-03T04:11:59;1.00;99.90
8463;DHT22;4268;52.506;13.462;2023-04-03T04:14:25;0.90;99.90
8463;DHT22;4268;52.506;13.462;2023-04-03T04:16:50;0.90;99.90
8463;DHT22;4268;52.506;13.462;2023-04-03T04:19:16;0.40;99.90
8463;DHT22;4268;52.506;13.462;2023-04-03T04:21:41;1.00;99.90
8463;DHT22;4268;52.506;13.462;2023-04-03T04:24:08;0.90;99.90
8463;DHT22;4268;52.506;13.462;2023-04-03T04:26:33;1.80;99.90
8463;DHT22;4268;52.506;13.462;2023-04-03T04:28:59;0.90;99.90
8463;DHT22;4268;52.506;13.462;2023-04-03T04:31:25;0.90;99.90
8463;DHT22;4268;52.506;13.462;2023-04-03T04:33:51;0.90;99.90
8463;DHT22;4268;52.506;13.462;2023-04-03T04:36:16;0.90;99.90
8463;DHT22;4268;52.506;13.462;2023-04-03T04:38:45;0.90;99.90
8463;DHT22;4268;52.506;13.462;2023-04-03T04:41:11;1.60;99.90
8463;DHT22;4268;52.506;13.462;2023-04-03T04:43:37;0.80;99.90
8463;DHT22;4268;52.506;13.462;2023-04-03T04:46:08;0.80;99.90
8463;DHT22;4268;52.506;13.462;2023-04-03T04:48:34;0.80;99.90
8463;DHT22;4268;52.506;13.462;2023-04-03T04:51:00;0.60;99.90
8463;DHT22;4268;52.506;13.462;2023-04-03T04:53:26;-0.30;99.90
8463;DHT22;4268;52.506;13.462;2023-04-03T04:55:52;0.80;99.90
8463;DHT22;4268;52.506;13.462;2023-04-03T04:58:18;0.80;99.90
8463;DHT22;4268;52.506;13.462;2023-04-03T05:00:43;1.30;99.90
8463;DHT22;4268;52.506;13.462;2023-04-03T05:03:09;0.90;99.90
8463;DHT22;4268;52.506;13.462;2023-04-03T05:05:35;0.80;99.90
8463;DHT22;4268;52.506;13.462;2023-04-03T05:08:01;0.90;99.90
8463;DHT22;4268;52.506;13.462;2023-04-03T05:10:27;0.80;99.90
8463;DHT22;4268;52.506;13.462;2023-04-03T05:12:52;1.00;99.90
8463;DHT22;4268;52.506;13.462;2023-04-03T05:15:18;0.60;99.90
8463;DHT22;4268;52.506;13.462;2023-04-03T05:17:43;1.00;99.90
8463;DHT22;4268;52.506;13.462;2023-04-03T05:20:09;0.80;99.90
8463;DHT22;4268;52.506;13.462;2023-04-03T05:22:35;1.10;99.90
8463;DHT22;4268;52.506;13.462;2023-04-03T05:25:00;1.10;99.90
8463;DHT22;4268;52.506;13.462;2023-04-03T05:27:26;0.90;99.90
8463;DHT22;4268;52.506;13.462;2023-04-03T05:29:53;1.20;99.90
8463;DHT22;4268;52.506;13.462;2023-04-03T05:32:19;1.20;99.90
8463;DHT22;4268;52.506;13.462;2023-04-03T05:34:45;1.20;99.90
8463;DHT22;4268;52.506;13.462;2023-04-03T05:37:11;1.30;99.90
8463;DHT22;4268;52.506;13.462;2023-04-03T05:39:37;2.40;99.90
8463;DHT22;4268;52.506;13.462;2023-04-03T05:42:03;1.20;99.90
8463;DHT22;4268;52.506;13.462;2023-04-03T05:44:29;1.40;99.90
8463;DHT22;4268;52.506;13.462;2023-04-03T05:46:55;1.30;99.90
8463;DHT22;4268;52.506;13.462;2023-04-03T05:49:20;1.40;99.90
8463;DHT22;4268;52.506;13.462;2023-04-03T05:51:46;1.50;99.90
8463;DHT22;4268;52.506;13.462;2023-04-03T05:54:20;1.50;99.90
8463;DHT22;4268;52.506;13.462;2023-04-03T05:56:48;1.60;99.90
8463;DHT22;4268;52.506;13.462;2023-04-03T05:59:14;1.60;99.90
8463;DHT22;4268;52.506;13.462;2023-04-03T06:01:40;1.60;99.90
8463;DHT22;4268;52.506;13.462;2023-04-03T06:04:05;1.70;99.90
8463;DHT22;4268;52.506;13.462;2023-04-03T06:09:14;2.20;99.90
8463;DHT22;4268;52.506;13.462;2023-04-03T06:11:40;1.80;99.90
8463;DHT22;4268;52.506;13.462;2023-04-03T06:14:07;1.90;99.90
8463;DHT22;4268;52.506;13.462;2023-04-03T06:16:33;2.00;99.90
8463;DHT22;4268;52.506;13.462;2023-04-03T06:18:59;2.00;99.90
8463;DHT22;4268;52.506;13.462;2023-04-03T06:21:25;2.10;99.90
8463;DHT22;4268;52.506;13.462;2023-04-03T06:23:50;2.20;99.90
8463;DHT22;4268;52.506;13.462;2023-04-03T06:26:17;2.70;99.90
8463;DHT22;4268;52.506;13.462;2023-04-03T06:28:42;3.20;99.90
8463;DHT22;4268;52.506;13.462;2023-04-03T06:31:08;4.60;99.90
8463;DHT22;4268;52.506;13.462;2023-04-03T06:33:34;6.40;99.90
8463;DHT22;4268;52.506;13.462;2023-04-03T06:36:00;7.10;97.40
8463;DHT22;4268;52.506;13.462;2023-04-03T06:38:28;9.40;94.50
8463;DHT22;4268;52.506;13.462;2023-04-03T06:40:53;10.30;90.60
8463;DHT22;4268;52.506;13.462;2023-04-03T06:43:19;11.40;84.80
8463;DHT22;4268;52.506;13.462;2023-04-03T06:45:45;12.50;79.60
8463;DHT22;4268;52.506;13.462;2023-04-03T06:48:12;13.40;74.10
8463;DHT22;4268;52.506;13.462;2023-04-03T06:50:38;14.30;71.00
8463;DHT22;4268;52.506;13.462;2023-04-03T06:53:03;14.80;67.30
8463;DHT22;4268;52.506;13.462;2023-04-03T06:55:29;14.10;66.10
8463;DHT22;4268;52.506;13.462;2023-04-03T06:57:54;15.20;63.40
8463;DHT22;4268;52.506;13.462;2023-04-03T07:00:22;14.80;60.60
8463;DHT22;4268;52.506;13.462;2023-04-03T07:02:47;14.70;61.10
8463;DHT22;4268;52.506;13.462;2023-04-03T07:05:13;15.60;60.40
8463;DHT22;4268;52.506;13.462;2023-04-03T07:07:39;15.40;59.30
8463;DHT22;4268;52.506;13.462;2023-04-03T07:10:06;15.20;56.50
8463;DHT22;4268;52.506;13.462;2023-04-03T07:12:32;14.40;57.20
8463;DHT22;4268;52.506;13.462;2023-04-03T07:14:58;15.00;58.00
8463;DHT22;4268;52.506;13.462;2023-04-03T07:17:24;15.50;56.50
8463;DHT22;4268;52.506;13.462;2023-04-03T07:19:50;15.40;55.50
8463;DHT22;4268;52.506;13.462;2023-04-03T07:22:16;15.80;54.50
8463;DHT22;4268;52.506;13.462;2023-04-03T07:24:42;15.80;54.10
8463;DHT22;4268;52.506;13.462;2023-04-03T07:27:07;15.80;53.80
8463;DHT22;4268;52.506;13.462;2023-04-03T07:29:34;15.80;53.00
8463;DHT22;4268;52.506;13.462;2023-04-03T07:32:01;15.60;53.70
8463;DHT22;4268;52.506;13.462;2023-04-03T07:34:26;15.70;52.90
8463;DHT22;4268;52.506;13.462;2023-04-03T07:36:52;15.80;53.10
8463;DHT22;4268;52.506;13.462;2023-04-03T07:39:18;16.50;52.00
8463;DHT22;4268;52.506;13.462;2023-04-03T07:41:44;17.20;51.20
8463;DHT22;4268;52.506;13.462;2023-04-03T07:44:09;15.10;49.40
8463;DHT22;4268;52.506;13.462;2023-04-03T07:46:36;14.30;52.50
8463;DHT22;4268;52.506;13.462;2023-04-03T07:49:02;13.80;53.40
8463;DHT22;4268;52.506;13.462;2023-04-03T07:51:27;13.50;52.30
8463;DHT22;4268;52.506;13.462;2023-04-03T07:53:54;12.90;52.40
8463;DHT22;4268;52.506;13.462;2023-04-03T07:56:21;12.50;53.20
8463;DHT22;4268;52.506;13.462;2023-04-03T07:58:48;11.00;53.90
8463;DHT22;4268;52.506;13.462;2023-04-03T08:01:13;9.90;57.10
8463;DHT22;4268;52.506;13.462;2023-04-03T08:03:39;9.40;59.70
8463;DHT22;4268;52.506;13.462;2023-04-03T08:06:06;9.10;60.80
8463;DHT22;4268;52.506;13.462;2023-04-03T08:08:32;8.50;62.20
8463;DHT22;4268;52.506;13.462;2023-04-03T08:10:59;8.40;62.90
8463;DHT22;4268;52.506;13.462;2023-04-03T08:13:25;8.20;63.00
8463;DHT22;4268;52.506;13.462;2023-04-03T08:15:51;7.70;64.50
8463;DHT22;4268;52.506;13.462;2023-04-03T08:18:18;7.70;66.60
8463;DHT22;4268;52.506;13.462;2023-04-03T08:20:46;7.90;65.80
8463;DHT22;4268;52.506;13.462;2023-04-03T08:23:12;7.70;66.20
8463;DHT22;4268;52.506;13.462;2023-04-03T08:25:38;7.70;66.70
8463;DHT22;4268;52.506;13.462;2023-04-03T08:28:04;9.40;69.40
8463;DHT22;4268;52.506;13.462;2023-04-03T08:30:30;8.20;66.20
8463;DHT22;4268;52.506;13.462;2023-04-03T08:32:56;6.60;66.30
8463;DHT22;4268;52.506;13.462;2023-04-03T08:35:21;6.50;66.90
8463;DHT22;4268;52.506;13.462;2023-04-03T08:37:47;6.30;67.40
8463;DHT22;4268;52.506;13.462;2023-04-03T08:40:15;6.40;67.90
8463;DHT22;4268;52.506;13.462;2023-04-03T08:43:12;6.30;68.30
8463;DHT22;4268;52.506;13.462;2023-04-03T08:45:53;6.10;67.30
8463;DHT22;4268;52.506;13.462;2023-04-03T08:48:33;5.50;66.60
8463;DHT22;4268;52.506;13.462;2023-04-03T08:51:03;5.00;67.80
8463;DHT22;4268;52.506;13.462;2023-04-03T08:53:33;4.80;69.20
8463;DHT22;4268;52.506;13.462;2023-04-03T08:56:04;4.70;70.70
8463;DHT22;4268;52.506;13.462;2023-04-03T08:58:42;4.90;70.70
8463;DHT22;4268;52.506;13.462;2023-04-03T09:03:44;4.70;69.90
8463;DHT22;4268;52.506;13.462;2023-04-03T09:06:15;5.10;70.70
8463;DHT22;4268;52.506;13.462;2023-04-03T09:11:27;4.90;71.30
8463;DHT22;4268;52.506;13.462;2023-04-03T09:14:15;4.80;71.20
8463;DHT22;4268;52.506;13.462;2023-04-03T09:16:53;5.00;71.40
8463;DHT22;4268;52.506;13.462;2023-04-03T09:19:35;5.10;71.30
8463;DHT22;4268;52.506;13.462;2023-04-03T09:22:21;5.40;69.10
8463;DHT22;4268;52.506;13.462;2023-04-03T09:25:13;5.60;69.20
8463;DHT22;4268;52.506;13.462;2023-04-03T09:27:40;5.50;66.60
8463;DHT22;4268;52.506;13.462;2023-04-03T09:30:17;5.30;68.00
8463;DHT22;4268;52.506;13.462;2023-04-03T09:32:47;5.40;68.40
8463;DHT22;4268;52.506;13.462;2023-04-03T09:35:30;5.70;67.20
8463;DHT22;4268;52.506;13.462;2023-04-03T09:38:22;5.90;67.10
8463;DHT22;4268;52.506;13.462;2023-04-03T09:41:16;6.00;66.30
8463;DHT22;4268;52.506;13.462;2023-04-03T09:43:53;6.20;66.10
8463;DHT22;4268;52.506;13.462;2023-04-03T09:46:29;6.40;65.20
8463;DHT22;4268;52.506;13.462;2023-04-03T09:48:58;6.50;64.90
8463;DHT22;4268;52.506;13.462;2023-04-03T09:51:27;6.40;65.00
8463;DHT22;4268;52.506;13.462;2023-04-03T09:53:53;6.50;65.90
8463;DHT22;4268;52.506;13.462;2023-04-03T09:56:29;6.40;66.00
8463;DHT22;4268;52.506;13.462;2023-04-03T10:01:32;6.30;66.90
8463;DHT22;4268;52.506;13.462;2023-04-03T10:04:18;6.20;66.60
8463;DHT22;4268;52.506;13.462;2023-04-03T10:06:50;6.00;67.20
8463;DHT22;4268;52.506;13.462;2023-04-03T10:09:23;6.00;67.10
8463;DHT22;4268;52.506;13.462;2023-04-03T10:12:05;6.20;67.30
8463;DHT22;4268;52.506;13.462;2023-04-03T10:14:36;6.20;66.30
8463;DHT22;4268;52.506;13.462;2023-04-03T10:17:17;5.90;67.30
8463;DHT22;4268;52.506;13.462;2023-04-03T10:23:21;6.20;68.50
8463;DHT22;4268;52.506;13.462;2023-04-03T10:26:02;6.50;67.60
8463;DHT22;4268;52.506;13.462;2023-04-03T10:28:57;6.70;67.50
8463;DHT22;4268;52.506;13.462;2023-04-03T10:31:37;6.80;67.20
8463;DHT22;4268;52.506;13.462;2023-04-03T10:34:28;6.90;67.60
8463;DHT22;4268;52.506;13.462;2023-04-03T10:36:57;7.20;67.30
8463;DHT22;4268;52.506;13.462;2023-04-03T10:42:42;7.20;66.10
8463;DHT22;4268;52.506;13.462;2023-04-03T10:48:26;7.20;65.10
8463;DHT22;4268;52.506;13.462;2023-04-03T10:53:39;7.20;65.70
8463;DHT22;4268;52.506;13.462;2023-04-03T10:56:22;7.20;65.00
8463;DHT22;4268;52.506;13.462;2023-04-03T11:04:39;7.10;64.70
8463;DHT22;4268;52.506;13.462;2023-04-03T11:07:24;6.70;65.80
8463;DHT22;4268;52.506;13.462;2023-04-03T11:09:58;6.80;66.50
8463;DHT22;4268;52.506;13.462;2023-04-03T11:12:39;6.60;66.20
8463;DHT22;4268;52.506;13.462;2023-04-03T11:15:15;6.50;66.90
8463;DHT22;4268;52.506;13.462;2023-04-03T11:17:47;6.60;67.70
8463;DHT22;4268;52.506;13.462;2023-04-03T11:22:58;7.00;67.20
8463;DHT22;4268;52.506;13.462;2023-04-03T11:25:27;7.20;66.90
8463;DHT22;4268;52.506;13.462;2023-04-03T11:28:05;7.20;66.90
8463;DHT22;4268;52.506;13.462;2023-04-03T11:36:12;6.50;67.80
8463;DHT22;4268;52.506;13.462;2023-04-03T11:38:46;6.40;68.70
8463;DHT22;4268;52.506;13.462;2023-04-03T11:41:13;6.40;69.90
8463;DHT22;4268;52.506;13.462;2023-04-03T11:43:41;6.50;70.60
8463;DHT22;4268;52.506;13.462;2023-04-03T11:46:09;6.80;70.80
8463;DHT22;4268;52.506;13.462;2023-04-03T11:53:42;6.90;70.40
8463;DHT22;4268;52.506;13.462;2023-04-03T12:01:55;7.20;70.20
8463;DHT22;4268;52.506;13.462;2023-04-03T12:04:24;7.30;70.00
8463;DHT22;4268;52.506;13.462;2023-04-03T12:07:33;7.40;69.80
8463;DHT22;4268;52.506;13.462;2023-04-03T12:12:28;7.50;69.30
8463;DHT22;4268;52.506;13.462;2023-04-03T12:14:55;7.30;68.40
8463;DHT22;4268;52.506;13.462;2023-04-03T12:17:23;7.30;68.40
8463;DHT22;4268;52.506;13.462;2023-04-03T12:19:51;7.20;68.30
8463;DHT22;4268;52.506;13.462;2023-04-03T12:22:19;7.40;68.60
8463;DHT22;4268;52.506;13.462;2023-04-03T12:24:48;7.30;68.40
8463;DHT22;4268;52.506;13.462;2023-04-03T12:27:38;7.60;68.60
8463;DHT22;4268;52.506;13.462;2023-04-03T12:30:35;7.70;68.70
8463;DHT22;4268;52.506;13.462;2023-04-03T12:33:17;7.70;66.70
8463;DHT22;4268;52.506;13.462;2023-04-03T12:36:06;7.80;67.10
8463;DHT22;4268;52.506;13.462;2023-04-03T12:38:55;7.90;66.70
8463;DHT22;4268;52.506;13.462;2023-04-03T12:42:16;8.00;66.70
8463;DHT22;4268;52.506;13.462;2023-04-03T12:45:10;8.10;66.50
8463;DHT22;4268;52.506;13.462;2023-04-03T12:47:42;8.00;66.90
8463;DHT22;4268;52.506;13.462;2023-04-03T12:50:30;8.00;70.00
8463;DHT22;4268;52.506;13.462;2023-04-03T12:53:06;7.90;68.30
8463;DHT22;4268;52.506;13.462;2023-04-03T12:55:32;7.80;66.90
8463;DHT22;4268;52.506;13.462;2023-04-03T12:58:16;7.80;68.80
8463;DHT22;4268;52.506;13.462;2023-04-03T13:00:42;7.70;68.70
8463;DHT22;4268;52.506;13.462;2023-04-03T13:03:22;7.70;66.90
8463;DHT22;4268;52.506;13.462;2023-04-03T13:05:48;7.70;67.40
8463;DHT22;4268;52.506;13.462;2023-04-03T13:08:14;7.60;66.30
8463;DHT22;4268;52.506;13.462;2023-04-03T13:11:03;7.30;66.50
8463;DHT22;4268;52.506;13.462;2023-04-03T13:13:29;7.10;67.70
8463;DHT22;4268;52.506;13.462;2023-04-03T13:15:55;7.10;70.20
8463;DHT22;4268;52.506;13.462;2023-04-03T13:18:32;7.20;70.10
8463;DHT22;4268;52.506;13.462;2023-04-03T13:21:13;7.30;71.10
8463;DHT22;4268;52.506;13.462;2023-04-03T13:23:43;7.50;71.10
8463;DHT22;4268;52.506;13.462;2023-04-03T13:26:10;7.50;70.70
8463;DHT22;4268;52.506;13.462;2023-04-03T13:28:38;7.50;70.60
8463;DHT22;4268;52.506;13.462;2023-04-03T13:31:19;7.40;70.20
8463;DHT22;4268;52.506;13.462;2023-04-03T13:33:59;7.30;71.50
8463;DHT22;4268;52.506;13.462;2023-04-03T13:36:32;7.10;71.10
8463;DHT22;4268;52.506;13.462;2023-04-03T13:39:34;7.10;72.60
8463;DHT22;4268;52.506;13.462;2023-04-03T13:41:54;7.00;71.80
8463;DHT22;4268;52.506;13.462;2023-04-03T13:46:55;6.90;72.80
8463;DHT22;4268;52.506;13.462;2023-04-03T13:49:33;6.80;72.60
8463;DHT22;4268;52.506;13.462;2023-04-03T13:54:46;6.90;72.20
8463;DHT22;4268;52.506;13.462;2023-04-03T13:57:15;7.00;73.30
8463;DHT22;4268;52.506;13.462;2023-04-03T13:59:41;7.00;72.40
8463;DHT22;4268;52.506;13.462;2023-04-03T14:02:28;7.10;73.40
8463;DHT22;4268;52.506;13.462;2023-04-03T14:04:58;7.10;73.30
8463;DHT22;4268;52.506;13.462;2023-04-03T14:07:27;7.20;73.30
8463;DHT22;4268;52.506;13.462;2023-04-03T14:09:53;7.20;72.80
8463;DHT22;4268;52.506;13.462;2023-04-03T14:12:29;7.30;73.60
8463;DHT22;4268;52.506;13.462;2023-04-03T14:14:56;7.30;73.40
8463;DHT22;4268;52.506;13.462;2023-04-03T14:17:25;7.30;73.30
8463;DHT22;4268;52.506;13.462;2023-04-03T14:19:52;7.30;73.20
8463;DHT22;4268;52.506;13.462;2023-04-03T14:22:21;7.20;72.40
8463;DHT22;4268;52.506;13.462;2023-04-03T14:24:47;7.10;73.40
8463;DHT22;4268;52.506;13.462;2023-04-03T14:27:38;6.90;73.30
8463;DHT22;4268;52.506;13.462;2023-04-03T14:30:07;6.80;71.90
8463;DHT22;4268;52.506;13.462;2023-04-03T14:32:33;7.10;72.70
8463;DHT22;4268;52.506;13.462;2023-04-03T14:34:59;7.30;74.10
8463;DHT22;4268;52.506;13.462;2023-04-03T14:37:27;7.40;73.40
8463;DHT22;4268;52.506;13.462;2023-04-03T14:39:55;7.40;74.20
8463;DHT22;4268;52.506;13.462;2023-04-03T14:42:24;7.40;74.10
8463;DHT22;4268;52.506;13.462;2023-04-03T14:44:51;7.30;73.60
8463;DHT22;4268;52.506;13.462;2023-04-03T14:47:20;7.10;71.60
8463;DHT22;4268;52.506;13.462;2023-04-03T14:49:47;7.00;73.90
8463;DHT22;4268;52.506;13.462;2023-04-03T14:52:25;6.90;75.10
8463;DHT22;4268;52.506;13.462;2023-04-03T14:54:52;6.90;75.90
8463;DHT22;4268;52.506;13.462;2023-04-03T14:57:18;6.80;76.40
8463;DHT22;4268;52.506;13.462;2023-04-03T14:59:45;6.60;75.90
8463;DHT22;4268;52.506;13.462;2023-04-03T15:02:35;6.50;76.80
8463;DHT22;4268;52.506;13.462;2023-04-03T15:05:02;6.40;77.80
8463;DHT22;4268;52.506;13.462;2023-04-03T15:07:31;6.30;77.80
8463;DHT22;4268;52.506;13.462;2023-04-03T15:09:58;6.30;78.20
8463;DHT22;4268;52.506;13.462;2023-04-03T15:12:24;6.20;79.10
8463;DHT22;4268;52.506;13.462;2023-04-03T15:14:50;6.20;79.30
8463;DHT22;4268;52.506;13.462;2023-04-03T15:17:18;6.20;80.40
8463;DHT22;4268;52.506;13.462;2023-04-03T15:19:45;6.10;80.70
8463;DHT22;4268;52.506;13.462;2023-04-03T15:22:18;6.10;80.40
8463;DHT22;4268;52.506;13.462;2023-04-03T15:24:45;6.10;81.50
8463;DHT22;4268;52.506;13.462;2023-04-03T15:27:13;6.00;82.20
8463;DHT22;4268;52.506;13.462;2023-04-03T15:29:39;6.00;81.90
8463;DHT22;4268;52.506;13.462;2023-04-03T15:32:07;6.00;82.60
8463;DHT22;4268;52.506;13.462;2023-04-03T15:34:34;5.90;82.50
8463;DHT22;4268;52.506;13.462;2023-04-03T15:37:00;5.90;83.20
8463;DHT22;4268;52.506;13.462;2023-04-03T15:39:26;5.90;83.80
8463;DHT22;4268;52.506;13.462;2023-04-03T15:41:51;5.90;84.30
8463;DHT22;4268;52.506;13.462;2023-04-03T15:44:17;6.00;83.70
8463;DHT22;4268;52.506;13.462;2023-04-03T15:46:44;6.00;83.30
8463;DHT22;4268;52.506;13.462;2023-04-03T15:49:11;6.00;83.60
8463;DHT22;4268;52.506;13.462;2023-04-03T15:51:36;5.90;83.70
8463;DHT22;4268;52.506;13.462;2023-04-03T15:54:02;6.00;83.30
8463;DHT22;4268;52.506;13.462;2023-04-03T15:56:27;5.80;83.70
8463;DHT22;4268;52.506;13.462;2023-04-03T15:58:53;5.70;84.70
8463;DHT22;4268;52.506;13.462;2023-04-03T16:01:18;5.50;84.30
8463;DHT22;4268;52.506;13.462;2023-04-03T16:03:44;5.40;85.10
8463;DHT22;4268;52.506;13.462;2023-04-03T16:06:19;5.40;84.30
8463;DHT22;4268;52.506;13.462;2023-04-03T16:08:46;5.40;85.40
8463;DHT22;4268;52.506;13.462;2023-04-03T16:11:13;5.40;85.30
8463;DHT22;4268;52.506;13.462;2023-04-03T16:13:38;5.50;84.80
8463;DHT22;4268;52.506;13.462;2023-04-03T16:16:04;5.70;85.60
8463;DHT22;4268;52.506;13.462;2023-04-03T16:18:31;5.80;84.60
8463;DHT22;4268;52.506;13.462;2023-04-03T16:20:57;5.90;84.00
8463;DHT22;4268;52.506;13.462;2023-04-03T16:23:22;6.00;83.40
8463;DHT22;4268;52.506;13.462;2023-04-03T16:25:48;6.00;84.10
8463;DHT22;4268;52.506;13.462;2023-04-03T16:28:16;6.00;84.50
8463;DHT22;4268;52.506;13.462;2023-04-03T16:30:43;6.10;84.50
8463;DHT22;4268;52.506;13.462;2023-04-03T16:33:10;6.00;85.10
8463;DHT22;4268;52.506;13.462;2023-04-03T16:35:36;5.90;84.90
8463;DHT22;4268;52.506;13.462;2023-04-03T16:38:02;5.90;85.30
8463;DHT22;4268;52.506;13.462;2023-04-03T16:40:27;5.80;85.00
8463;DHT22;4268;52.506;13.462;2023-04-03T16:42:53;5.70;85.40
8463;DHT22;4268;52.506;13.462;2023-04-03T16:45:18;5.70;85.50
8463;DHT22;4268;52.506;13.462;2023-04-03T16:47:44;5.60;85.60
8463;DHT22;4268;52.506;13.462;2023-04-03T16:50:09;5.60;84.70
8463;DHT22;4268;52.506;13.462;2023-04-03T16:52:35;5.60;84.60
8463;DHT22;4268;52.506;13.462;2023-04-03T16:55:01;5.60;84.90
8463;DHT22;4268;52.506;13.462;2023-04-03T16:57:27;5.50;85.10
8463;DHT22;4268;52.506;13.462;2023-04-03T16:59:53;5.50;86.20
8463;DHT22;4268;52.506;13.462;2023-04-03T17:02:20;5.50;85.40
8463;DHT22;4268;52.506;13.462;2023-04-03T17:04:46;5.40;85.20
8463;DHT22;4268;52.506;13.462;2023-04-03T17:07:11;5.40;86.30
8463;DHT22;4268;52.506;13.462;2023-04-03T17:09:37;5.40;86.30
8463;DHT22;4268;52.506;13.462;2023-04-03T17:12:03;5.30;87.00
8463;DHT22;4268;52.506;13.462;2023-04-03T17:14:29;5.30;86.60
8463;DHT22;4268;52.506;13.462;2023-04-03T17:16:54;5.30;87.00